»·PEaware :: N982ZA KCRQ-KSBA

N982ZA :: KCRQ-KSBA

FLIGHT INFORMATION

Flight Status: Arrived
Operator: Privately registered:
United States
More flights under this callsign
Pilot: Anonymous 15639 (15639)
Aircraft: Unknown
(P28U)
More flights by this aircraft type
Origin: KCRQ McClellan-Palomar
United States
Destination: KSBA Santa Barbara Mun
United States
More flights between these airports :: More routes between these airports
Route: +OCN V23 LAX V299 VTU VTU282R KWANG
File this flight plan on PilotEdge
Remarks: TEC route SANN35
Altitude:
(Current/Filed)
6,000ft
Speed:
(Current/Filed)
160kts
Departed: 05-Jan-18 12:53 PM
Arrived: 05-Jan-18 02:16 PM
Distance/Time
Traveled:
150nm/1:23
Distance/Time
To Go:
Arrived

Flight Plot

Page will automatically refresh every two minutes.


Map Options




Map Legend


Flown Route
Filed Route
Departure Airport
Arrival Airport
Navaid (VOR, NDB)
Fix

Horizontal Profiles

Position Reports

Time Latitude Longitude Heading Altitude Ground
Speed
05-Jan-18 12:41 33.127352 -117.275828 258 334ft 0kts
05-Jan-18 12:42 33.127352 -117.275828 258 334ft 0kts
05-Jan-18 12:43 33.127352 -117.275828 258 334ft 0kts
05-Jan-18 12:44 33.127352 -117.275828 258 334ft 0kts
05-Jan-18 12:45 33.127352 -117.275828 258 334ft 0kts
05-Jan-18 12:46 33.127352 -117.275828 258 334ft 0kts
05-Jan-18 12:47 33.127352 -117.275828 258 334ft 0kts
05-Jan-18 12:48 33.127352 -117.275828 258 334ft 0kts
05-Jan-18 12:49 33.127352 -117.275828 258 334ft 0kts
05-Jan-18 12:50 33.127352 -117.275828 258 334ft 0kts
05-Jan-18 12:51 33.127352 -117.275828 258 334ft 0kts
05-Jan-18 12:52 33.127352 -117.275828 258 334ft 0kts
05-Jan-18 12:53 33.127352 -117.275828 258 334ft 0kts
05-Jan-18 12:54 33.127340 -117.275896 259 334ft 1kts
05-Jan-18 12:55 33.127726 -117.276241 347 334ft 0kts
05-Jan-18 12:56 33.128271 -117.274860 78 334ft 11kts
05-Jan-18 12:57 33.128651 -117.272792 46 334ft 0kts
05-Jan-18 12:58 33.128768 -117.272646 46 334ft 7kts
05-Jan-18 12:59 33.127234 -117.287525 261 600ft 97kts
05-Jan-18 13:00 33.123357 -117.319114 261 1773ft 99kts
05-Jan-18 13:01 33.119390 -117.351633 262 2880ft 100kts
05-Jan-18 13:02 33.114819 -117.384354 261 3978ft 102kts
05-Jan-18 13:03 33.130307 -117.406587 340 4998ft 105kts
05-Jan-18 13:04 33.158729 -117.412958 355 5980ft 109kts
05-Jan-18 13:05 33.195606 -117.414860 355 5997ft 141kts
05-Jan-18 13:06 33.234345 -117.417181 354 5996ft 139kts
05-Jan-18 13:07 33.263772 -117.444979 315 5997ft 136kts
05-Jan-18 13:08 33.291023 -117.476463 314 5988ft 136kts
05-Jan-18 13:09 33.318344 -117.508289 314 5988ft 139kts
05-Jan-18 13:10 33.346338 -117.540955 313 5987ft 141kts
05-Jan-18 13:11 33.374521 -117.573884 313 5993ft 141kts
05-Jan-18 13:12 33.402470 -117.606604 312 5996ft 141kts
05-Jan-18 13:13 33.430474 -117.639453 313 5996ft 141kts
05-Jan-18 13:14 33.458298 -117.672102 313 5998ft 141kts
05-Jan-18 13:15 33.486333 -117.705006 314 5998ft 141kts
05-Jan-18 13:16 33.514472 -117.738064 315 5998ft 142kts
05-Jan-18 13:17 33.542793 -117.771215 315 5998ft 142kts
05-Jan-18 13:18 33.571322 -117.804409 315 5998ft 143kts
05-Jan-18 13:19 33.599736 -117.837812 315 5997ft 143kts
05-Jan-18 13:20 33.628139 -117.871284 315 5997ft 143kts
05-Jan-18 13:21 33.656452 -117.904711 314 5997ft 143kts
05-Jan-18 13:22 33.684895 -117.938334 314 5997ft 143kts
05-Jan-18 13:23 33.713254 -117.971892 313 5997ft 143kts
05-Jan-18 13:24 33.741692 -118.005579 313 5997ft 144kts
05-Jan-18 13:25 33.770270 -118.039473 312 5997ft 145kts
05-Jan-18 13:26 33.789466 -118.080150 285 6014ft 142kts
05-Jan-18 13:27 33.801113 -118.125612 286 6014ft 142kts
05-Jan-18 13:28 33.812369 -118.169892 286 6013ft 142kts
05-Jan-18 13:29 33.823960 -118.215063 287 6014ft 142kts
05-Jan-18 13:30 33.835629 -118.260387 287 6014ft 142kts
05-Jan-18 13:31 33.846373 -118.302769 287 6014ft 142kts
05-Jan-18 13:32 33.855957 -118.340734 287 6015ft 142kts
05-Jan-18 13:33 33.886070 -118.381413 317 6015ft 142kts
05-Jan-18 13:34 33.915642 -118.413212 318 6015ft 143kts
05-Jan-18 13:35 33.936486 -118.443334 294 6015ft 144kts
05-Jan-18 13:36 33.950996 -118.488146 292 6015ft 144kts
05-Jan-18 13:37 33.967767 -118.540698 292 6015ft 144kts
05-Jan-18 13:38 33.979698 -118.578204 292 6015ft 144kts
05-Jan-18 13:39 33.994002 -118.623242 292 6015ft 143kts
05-Jan-18 13:40 34.008128 -118.667779 291 6018ft 142kts
05-Jan-18 13:41 34.022237 -118.712315 290 6019ft 142kts
05-Jan-18 13:42 34.036245 -118.756600 290 6021ft 141kts
05-Jan-18 13:43 34.048622 -118.801386 286 6023ft 140kts
05-Jan-18 13:44 34.060607 -118.846291 285 6024ft 140kts
05-Jan-18 13:45 34.072542 -118.891049 285 6025ft 140kts
05-Jan-18 13:46 34.084498 -118.935977 284 6026ft 140kts
05-Jan-18 13:47 34.096430 -118.980881 284 6025ft 140kts
05-Jan-18 13:48 34.108289 -119.025566 284 6023ft 140kts
05-Jan-18 13:49 34.122962 -119.069274 293 6022ft 141kts
05-Jan-18 13:50 34.140957 -119.111454 294 6022ft 141kts
05-Jan-18 13:51 34.158922 -119.153854 294 6022ft 141kts
05-Jan-18 13:52 34.176626 -119.196080 294 6022ft 141kts
05-Jan-18 13:53 34.194335 -119.238452 294 6023ft 141kts
05-Jan-18 13:54 34.212021 -119.280837 293 6024ft 141kts
05-Jan-18 13:55 34.229694 -119.323249 293 6024ft 141kts
05-Jan-18 13:56 34.247354 -119.365649 293 6024ft 141kts
05-Jan-18 13:57 34.265063 -119.408158 294 6024ft 141kts
05-Jan-18 13:58 34.282758 -119.450540 293 6025ft 141kts
05-Jan-18 13:59 34.300508 -119.493313 293 6026ft 142kts
05-Jan-18 14:00 34.310913 -119.538411 272 6028ft 140kts
05-Jan-18 14:01 34.313978 -119.585417 272 5965ft 141kts
05-Jan-18 14:02 34.317066 -119.633808 272 5456ft 146kts
05-Jan-18 14:03 34.320094 -119.683183 272 4838ft 147kts
05-Jan-18 14:04 34.322996 -119.732490 272 4268ft 147kts
05-Jan-18 14:05 34.325728 -119.780858 271 4020ft 139kts
05-Jan-18 14:06 34.328379 -119.827574 271 4021ft 141kts
05-Jan-18 14:07 34.331043 -119.875350 271 4021ft 142kts
05-Jan-18 14:08 34.333684 -119.923413 271 4021ft 143kts
05-Jan-18 14:09 34.336281 -119.971296 271 4020ft 142kts
05-Jan-18 14:10 34.338822 -120.019355 271 4020ft 142kts
05-Jan-18 14:11 34.340843 -120.067158 271 4018ft 142kts
05-Jan-18 14:12 34.342184 -120.114917 271 4007ft 142kts
05-Jan-18 14:13 34.359769 -120.148157 9 4007ft 149kts
05-Jan-18 14:14 34.400067 -120.135949 15 4008ft 150kts
05-Jan-18 14:15 34.421686 -120.095789 85 3997ft 139kts
05-Jan-18 14:16 34.423095 -120.049301 87 3390ft 137kts
05-Jan-18 14:17 34.424160 -120.004711 87 2476ft 128kts
05-Jan-18 14:18 34.425110 -119.963945 88 1675ft 112kts
05-Jan-18 14:19 34.425910 -119.929659 87 1261ft 103kts
05-Jan-18 14:20 34.426608 -119.897257 87 744ft 90kts
05-Jan-18 14:21 34.427310 -119.866923 86 256ft 90kts
05-Jan-18 14:22 34.428071 -119.846414 58 16ft 17kts
05-Jan-18 14:23 34.428448 -119.845582 62 16ft 0kts
05-Jan-18 14:24 34.429920 -119.841857 62 16ft 13kts
05-Jan-18 14:25 34.431584 -119.839713 248 16ft 0kts

Navigation Log

Ident Type
1. KCRQ Airport
2. OCN Navaid
3. KELPS Fix
4. DANAH Fix
5. KRAUZ Fix
6. BALBO Fix
7. MIDDS Fix
8. SLI Navaid
9. POPPR Fix
10. HERMO Fix
11. LAX Navaid
12. SADDE Fix
13. VTU Navaid
14. KWANG Fix
15. KSBA Airport